sensor_id;sensor_type;location;lat;lon;timestamp;temperature;humidity
19646;DHT22;9971;52.446;13.452;2023-04-03T00:01:57;5.00;99.90
19646;DHT22;9971;52.446;13.452;2023-04-03T00:06:59;5.00;99.90
19646;DHT22;9971;52.446;13.452;2023-04-03T00:12:02;5.00;99.90
19646;DHT22;9971;52.446;13.452;2023-04-03T00:17:04;4.90;99.90
19646;DHT22;9971;52.446;13.452;2023-04-03T00:22:07;5.00;99.90
19646;DHT22;9971;52.446;13.452;2023-04-03T00:27:09;4.90;99.90
19646;DHT22;9971;52.446;13.452;2023-04-03T00:32:11;4.90;99.90
19646;DHT22;9971;52.446;13.452;2023-04-03T00:37:14;4.90;99.90
19646;DHT22;9971;52.446;13.452;2023-04-03T00:42:16;4.90;99.90
19646;DHT22;9971;52.446;13.452;2023-04-03T00:47:18;4.90;99.90
19646;DHT22;9971;52.446;13.452;2023-04-03T00:52:21;4.80;99.90
19646;DHT22;9971;52.446;13.452;2023-04-03T00:57:23;4.70;99.90
19646;DHT22;9971;52.446;13.452;2023-04-03T01:02:25;4.70;99.90
19646;DHT22;9971;52.446;13.452;2023-04-03T01:07:29;4.70;99.90
19646;DHT22;9971;52.446;13.452;2023-04-03T01:12:31;4.60;99.90
19646;DHT22;9971;52.446;13.452;2023-04-03T01:17:34;4.60;99.90
19646;DHT22;9971;52.446;13.452;2023-04-03T01:22:38;4.60;99.90
19646;DHT22;9971;52.446;13.452;2023-04-03T01:27:37;4.50;99.90
19646;DHT22;9971;52.446;13.452;2023-04-03T01:32:40;4.40;99.90
19646;DHT22;9971;52.446;13.452;2023-04-03T01:37:42;4.40;99.90
19646;DHT22;9971;52.446;13.452;2023-04-03T01:42:45;4.40;99.90
19646;DHT22;9971;52.446;13.452;2023-04-03T01:47:47;4.40;99.90
19646;DHT22;9971;52.446;13.452;2023-04-03T01:52:49;4.40;99.90
19646;DHT22;9971;52.446;13.452;2023-04-03T01:57:52;4.40;99.90
19646;DHT22;9971;52.446;13.452;2023-04-03T02:02:54;4.40;99.90
19646;DHT22;9971;52.446;13.452;2023-04-03T02:07:56;4.40;99.90
19646;DHT22;9971;52.446;13.452;2023-04-03T02:12:59;4.40;99.90
19646;DHT22;9971;52.446;13.452;2023-04-03T02:18:01;4.40;99.90
19646;DHT22;9971;52.446;13.452;2023-04-03T02:23:03;4.30;99.90
19646;DHT22;9971;52.446;13.452;2023-04-03T02:28:06;4.30;99.90
19646;DHT22;9971;52.446;13.452;2023-04-03T02:33:08;4.20;99.90
19646;DHT22;9971;52.446;13.452;2023-04-03T02:38:11;4.20;99.90
19646;DHT22;9971;52.446;13.452;2023-04-03T02:43:13;4.10;99.90
19646;DHT22;9971;52.446;13.452;2023-04-03T02:48:16;4.20;99.90
19646;DHT22;9971;52.446;13.452;2023-04-03T02:53:18;4.20;99.90
19646;DHT22;9971;52.446;13.452;2023-04-03T02:58:20;4.10;99.90
19646;DHT22;9971;52.446;13.452;2023-04-03T03:03:23;4.10;99.90
19646;DHT22;9971;52.446;13.452;2023-04-03T03:08:25;4.10;99.90
19646;DHT22;9971;52.446;13.452;2023-04-03T03:13:27;4.10;99.90
19646;DHT22;9971;52.446;13.452;2023-04-03T03:18:29;4.00;99.90
19646;DHT22;9971;52.446;13.452;2023-04-03T03:23:32;4.10;99.90
19646;DHT22;9971;52.446;13.452;2023-04-03T03:28:34;4.00;99.90
19646;DHT22;9971;52.446;13.452;2023-04-03T03:33:36;4.00;99.90
19646;DHT22;9971;52.446;13.452;2023-04-03T03:38:38;4.00;99.90
19646;DHT22;9971;52.446;13.452;2023-04-03T03:43:40;4.00;99.90
19646;DHT22;9971;52.446;13.452;2023-04-03T03:48:43;3.90;99.90
19646;DHT22;9971;52.446;13.452;2023-04-03T03:53:45;3.90;99.90
19646;DHT22;9971;52.446;13.452;2023-04-03T03:58:47;3.90;99.90
19646;DHT22;9971;52.446;13.452;2023-04-03T04:03:53;3.80;99.90
19646;DHT22;9971;52.446;13.452;2023-04-03T04:08:55;3.80;99.90
19646;DHT22;9971;52.446;13.452;2023-04-03T04:13:58;3.80;99.90
19646;DHT22;9971;52.446;13.452;2023-04-03T04:19:00;3.80;99.90
19646;DHT22;9971;52.446;13.452;2023-04-03T04:24:03;3.70;99.90
19646;DHT22;9971;52.446;13.452;2023-04-03T04:29:05;3.80;99.90
19646;DHT22;9971;52.446;13.452;2023-04-03T04:34:08;3.80;99.90
19646;DHT22;9971;52.446;13.452;2023-04-03T04:39:10;3.70;99.90
19646;DHT22;9971;52.446;13.452;2023-04-03T04:44:12;3.70;99.90
19646;DHT22;9971;52.446;13.452;2023-04-03T04:49:15;3.70;99.90
19646;DHT22;9971;52.446;13.452;2023-04-03T04:54:17;3.70;99.90
19646;DHT22;9971;52.446;13.452;2023-04-03T04:59:19;3.70;99.90
19646;DHT22;9971;52.446;13.452;2023-04-03T05:04:22;3.70;99.90
19646;DHT22;9971;52.446;13.452;2023-04-03T05:09:24;3.70;99.90
19646;DHT22;9971;52.446;13.452;2023-04-03T05:14:27;3.70;99.90
19646;DHT22;9971;52.446;13.452;2023-04-03T05:19:29;3.70;99.90
19646;DHT22;9971;52.446;13.452;2023-04-03T05:24:32;3.80;99.90
19646;DHT22;9971;52.446;13.452;2023-04-03T05:29:34;3.90;99.90
19646;DHT22;9971;52.446;13.452;2023-04-03T05:34:37;3.90;99.90
19646;DHT22;9971;52.446;13.452;2023-04-03T05:39:39;4.00;99.90
19646;DHT22;9971;52.446;13.452;2023-04-03T05:44:42;4.20;99.90
19646;DHT22;9971;52.446;13.452;2023-04-03T05:49:44;4.30;99.90
19646;DHT22;9971;52.446;13.452;2023-04-03T05:54:46;4.30;99.90
19646;DHT22;9971;52.446;13.452;2023-04-03T05:59:48;4.40;99.90
19646;DHT22;9971;52.446;13.452;2023-04-03T06:04:50;4.50;99.90
19646;DHT22;9971;52.446;13.452;2023-04-03T06:09:52;4.60;99.90
19646;DHT22;9971;52.446;13.452;2023-04-03T06:14:54;4.60;99.90
19646;DHT22;9971;52.446;13.452;2023-04-03T06:19:56;4.70;99.90
19646;DHT22;9971;52.446;13.452;2023-04-03T06:24:58;4.90;99.90
19646;DHT22;9971;52.446;13.452;2023-04-03T06:30:01;5.00;99.90
19646;DHT22;9971;52.446;13.452;2023-04-03T06:35:04;5.10;99.90
19646;DHT22;9971;52.446;13.452;2023-04-03T06:40:07;5.20;99.90
19646;DHT22;9971;52.446;13.452;2023-04-03T06:45:09;5.30;99.90
19646;DHT22;9971;52.446;13.452;2023-04-03T06:50:12;5.40;99.90
19646;DHT22;9971;52.446;13.452;2023-04-03T06:55:14;5.60;99.90
19646;DHT22;9971;52.446;13.452;2023-04-03T07:00:17;5.70;99.90
19646;DHT22;9971;52.446;13.452;2023-04-03T07:05:19;5.80;99.90
19646;DHT22;9971;52.446;13.452;2023-04-03T07:10:21;5.90;99.90
19646;DHT22;9971;52.446;13.452;2023-04-03T07:15:23;6.10;99.90
19646;DHT22;9971;52.446;13.452;2023-04-03T07:20:26;6.20;99.90
19646;DHT22;9971;52.446;13.452;2023-04-03T07:25:28;6.30;99.90
19646;DHT22;9971;52.446;13.452;2023-04-03T07:30:30;6.30;99.90
19646;DHT22;9971;52.446;13.452;2023-04-03T07:35:33;6.50;99.90
19646;DHT22;9971;52.446;13.452;2023-04-03T07:40:35;6.60;99.90
19646;DHT22;9971;52.446;13.452;2023-04-03T07:45:37;6.80;99.90
19646;DHT22;9971;52.446;13.452;2023-04-03T07:50:40;6.90;99.90
19646;DHT22;9971;52.446;13.452;2023-04-03T07:55:42;7.00;99.90
19646;DHT22;9971;52.446;13.452;2023-04-03T08:00:44;7.20;99.90
19646;DHT22;9971;52.446;13.452;2023-04-03T08:05:47;7.30;99.90
19646;DHT22;9971;52.446;13.452;2023-04-03T08:10:49;7.30;99.90
19646;DHT22;9971;52.446;13.452;2023-04-03T08:15:51;7.40;99.90
19646;DHT22;9971;52.446;13.452;2023-04-03T08:20:53;7.40;99.90
19646;DHT22;9971;52.446;13.452;2023-04-03T08:25:55;7.30;99.90
19646;DHT22;9971;52.446;13.452;2023-04-03T08:31:01;7.60;99.90
19646;DHT22;9971;52.446;13.452;2023-04-03T08:36:00;7.70;99.90
19646;DHT22;9971;52.446;13.452;2023-04-03T08:41:06;7.80;99.90
19646;DHT22;9971;52.446;13.452;2023-04-03T08:46:06;8.00;99.90
19646;DHT22;9971;52.446;13.452;2023-04-03T08:51:17;8.20;98.00
19646;DHT22;9971;52.446;13.452;2023-04-03T08:56:17;8.50;96.70
19646;DHT22;9971;52.446;13.452;2023-04-03T09:01:21;8.80;97.40
19646;DHT22;9971;52.446;13.452;2023-04-03T09:06:25;9.10;97.60
19646;DHT22;9971;52.446;13.452;2023-04-03T09:11:44;9.30;96.00
19646;DHT22;9971;52.446;13.452;2023-04-03T09:16:48;9.50;95.10
19646;DHT22;9971;52.446;13.452;2023-04-03T09:21:50;9.80;93.50
19646;DHT22;9971;52.446;13.452;2023-04-03T09:26:59;9.80;92.70
19646;DHT22;9971;52.446;13.452;2023-04-03T09:32:08;9.70;91.80
19646;DHT22;9971;52.446;13.452;2023-04-03T09:37:05;9.70;90.50
19646;DHT22;9971;52.446;13.452;2023-04-03T09:42:25;9.50;90.50
19646;DHT22;9971;52.446;13.452;2023-04-03T09:47:32;9.40;90.20
19646;DHT22;9971;52.446;13.452;2023-04-03T09:52:33;9.40;89.90
19646;DHT22;9971;52.446;13.452;2023-04-03T09:57:35;9.40;87.60
19646;DHT22;9971;52.446;13.452;2023-04-03T10:02:38;9.30;90.30
19646;DHT22;9971;52.446;13.452;2023-04-03T10:07:40;9.30;90.20
19646;DHT22;9971;52.446;13.452;2023-04-03T10:12:42;9.40;91.80
19646;DHT22;9971;52.446;13.452;2023-04-03T10:18:02;9.50;90.50
19646;DHT22;9971;52.446;13.452;2023-04-03T10:23:05;9.40;90.10
19646;DHT22;9971;52.446;13.452;2023-04-03T10:28:08;9.40;90.70
19646;DHT22;9971;52.446;13.452;2023-04-03T10:33:24;9.40;88.50
19646;DHT22;9971;52.446;13.452;2023-04-03T10:43:44;9.80;88.20
19646;DHT22;9971;52.446;13.452;2023-04-03T10:48:51;9.90;89.10
19646;DHT22;9971;52.446;13.452;2023-04-03T10:54:00;9.80;85.40
19646;DHT22;9971;52.446;13.452;2023-04-03T11:23:58;9.60;88.30
19646;DHT22;9971;52.446;13.452;2023-04-03T11:29:01;12.30;96.40
19646;DHT22;9971;52.446;13.452;2023-04-03T11:59:21;11.50;88.40
19646;DHT22;9971;52.446;13.452;2023-04-03T12:04:23;13.60;99.90
19646;DHT22;9971;52.446;13.452;2023-04-03T12:09:32;12.20;86.00
19646;DHT22;9971;52.446;13.452;2023-04-03T12:14:33;11.50;86.90
19646;DHT22;9971;52.446;13.452;2023-04-03T12:19:36;10.90;88.00
19646;DHT22;9971;52.446;13.452;2023-04-03T12:24:39;10.60;88.70
19646;DHT22;9971;52.446;13.452;2023-04-03T12:29:51;10.40;86.80
19646;DHT22;9971;52.446;13.452;2023-04-03T12:35:00;10.40;86.50
19646;DHT22;9971;52.446;13.452;2023-04-03T12:40:05;10.30;83.70
19646;DHT22;9971;52.446;13.452;2023-04-03T12:45:09;10.40;82.20
19646;DHT22;9971;52.446;13.452;2023-04-03T12:50:17;10.40;81.50
19646;DHT22;9971;52.446;13.452;2023-04-03T12:55:19;10.50;80.20
19646;DHT22;9971;52.446;13.452;2023-04-03T13:25:20;10.40;81.40
19646;DHT22;9971;52.446;13.452;2023-04-03T13:30:25;12.80;98.00
19646;DHT22;9971;52.446;13.452;2023-04-03T13:35:35;11.80;82.50
19646;DHT22;9971;52.446;13.452;2023-04-03T13:40:46;11.10;81.20
19646;DHT22;9971;52.446;13.452;2023-04-03T13:45:40;10.50;84.20
19646;DHT22;9971;52.446;13.452;2023-04-03T13:50:50;10.20;87.00
19646;DHT22;9971;52.446;13.452;2023-04-03T13:55:58;10.00;85.90
19646;DHT22;9971;52.446;13.452;2023-04-03T14:01:18;9.80;87.70
19646;DHT22;9971;52.446;13.452;2023-04-03T14:06:20;9.70;88.10
19646;DHT22;9971;52.446;13.452;2023-04-03T14:11:26;9.60;89.60
19646;DHT22;9971;52.446;13.452;2023-04-03T14:16:29;9.60;89.60
19646;DHT22;9971;52.446;13.452;2023-04-03T14:21:29;9.60;89.40
19646;DHT22;9971;52.446;13.452;2023-04-03T14:26:31;9.70;89.50
19646;DHT22;9971;52.446;13.452;2023-04-03T14:31:34;10.20;88.60
19646;DHT22;9971;52.446;13.452;2023-04-03T14:36:36;10.50;87.50
19646;DHT22;9971;52.446;13.452;2023-04-03T14:41:38;10.40;86.70
19646;DHT22;9971;52.446;13.452;2023-04-03T14:46:42;10.40;87.60
19646;DHT22;9971;52.446;13.452;2023-04-03T14:51:43;11.00;86.30
19646;DHT22;9971;52.446;13.452;2023-04-03T14:56:45;11.20;82.70
19646;DHT22;9971;52.446;13.452;2023-04-03T15:01:48;10.80;85.60
19646;DHT22;9971;52.446;13.452;2023-04-03T15:06:50;10.50;88.00
19646;DHT22;9971;52.446;13.452;2023-04-03T15:11:52;10.30;89.40
19646;DHT22;9971;52.446;13.452;2023-04-03T15:16:54;10.00;89.20
19646;DHT22;9971;52.446;13.452;2023-04-03T15:21:56;9.80;90.60
19646;DHT22;9971;52.446;13.452;2023-04-03T15:26:59;9.60;91.70
19646;DHT22;9971;52.446;13.452;2023-04-03T15:32:01;9.40;91.80
19646;DHT22;9971;52.446;13.452;2023-04-03T15:37:03;9.30;92.80
19646;DHT22;9971;52.446;13.452;2023-04-03T16:07:05;9.20;92.90
19646;DHT22;9971;52.446;13.452;2023-04-03T16:12:08;12.00;94.50
19646;DHT22;9971;52.446;13.452;2023-04-03T16:17:10;10.60;90.50
19646;DHT22;9971;52.446;13.452;2023-04-03T16:22:13;9.70;92.20
19646;DHT22;9971;52.446;13.452;2023-04-03T16:27:15;9.60;93.20
19646;DHT22;9971;52.446;13.452;2023-04-03T16:32:17;10.00;92.70
19646;DHT22;9971;52.446;13.452;2023-04-03T16:37:19;10.10;91.60
19646;DHT22;9971;52.446;13.452;2023-04-03T16:42:22;10.20;90.30
19646;DHT22;9971;52.446;13.452;2023-04-03T16:47:25;10.00;90.80
19646;DHT22;9971;52.446;13.452;2023-04-03T16:52:27;9.70;91.60
19646;DHT22;9971;52.446;13.452;2023-04-03T16:57:29;9.50;91.70
19646;DHT22;9971;52.446;13.452;2023-04-03T17:02:31;9.30;92.40
19646;DHT22;9971;52.446;13.452;2023-04-03T17:07:34;9.20;93.80
19646;DHT22;9971;52.446;13.452;2023-04-03T17:12:37;9.00;94.10
19646;DHT22;9971;52.446;13.452;2023-04-03T17:17:39;8.80;94.50
19646;DHT22;9971;52.446;13.452;2023-04-03T17:22:42;8.70;94.50
19646;DHT22;9971;52.446;13.452;2023-04-03T17:27:44;8.60;95.10
19646;DHT22;9971;52.446;13.452;2023-04-03T17:32:46;8.50;95.50
19646;DHT22;9971;52.446;13.452;2023-04-03T17:37:48;8.40;95.70
19646;DHT22;9971;52.446;13.452;2023-04-03T17:42:51;8.30;95.30
19646;DHT22;9971;52.446;13.452;2023-04-03T17:47:53;8.20;95.80
19646;DHT22;9971;52.446;13.452;2023-04-03T17:52:56;8.20;96.30
19646;DHT22;9971;52.446;13.452;2023-04-03T17:57:58;8.10;96.70
19646;DHT22;9971;52.446;13.452;2023-04-03T18:03:01;8.00;97.20
19646;DHT22;9971;52.446;13.452;2023-04-03T18:08:03;8.00;97.20
19646;DHT22;9971;52.446;13.452;2023-04-03T18:13:06;7.90;97.60
19646;DHT22;9971;52.446;13.452;2023-04-03T18:18:08;7.90;98.30
19646;DHT22;9971;52.446;13.452;2023-04-03T18:23:10;7.80;98.70
19646;DHT22;9971;52.446;13.452;2023-04-03T18:28:12;7.70;99.10
19646;DHT22;9971;52.446;13.452;2023-04-03T18:33:15;7.60;99.40
19646;DHT22;9971;52.446;13.452;2023-04-03T18:38:18;7.60;99.70
19646;DHT22;9971;52.446;13.452;2023-04-03T18:43:20;7.50;99.50
19646;DHT22;9971;52.446;13.452;2023-04-03T18:48:23;7.50;99.70
19646;DHT22;9971;52.446;13.452;2023-04-03T18:53:25;7.40;99.70
19646;DHT22;9971;52.446;13.452;2023-04-03T18:58:27;7.40;99.90
19646;DHT22;9971;52.446;13.452;2023-04-03T19:03:29;7.30;99.90
19646;DHT22;9971;52.446;13.452;2023-04-03T19:08:32;7.20;99.90
19646;DHT22;9971;52.446;13.452;2023-04-03T19:13:35;7.20;99.90
19646;DHT22;9971;52.446;13.452;2023-04-03T19:18:37;7.10;99.90
19646;DHT22;9971;52.446;13.452;2023-04-03T19:23:40;7.10;99.90
19646;DHT22;9971;52.446;13.452;2023-04-03T19:28:42;7.00;99.90
19646;DHT22;9971;52.446;13.452;2023-04-03T19:33:45;7.00;99.90
19646;DHT22;9971;52.446;13.452;2023-04-03T19:38:47;6.90;99.90
19646;DHT22;9971;52.446;13.452;2023-04-03T19:43:50;6.90;99.90
19646;DHT22;9971;52.446;13.452;2023-04-03T19:48:52;6.90;99.90
19646;DHT22;9971;52.446;13.452;2023-04-03T19:53:54;6.90;99.90
19646;DHT22;9971;52.446;13.452;2023-04-03T19:58:56;6.80;99.90
19646;DHT22;9971;52.446;13.452;2023-04-03T20:03:59;6.80;99.90
19646;DHT22;9971;52.446;13.452;2023-04-03T20:09:01;6.80;99.90
19646;DHT22;9971;52.446;13.452;2023-04-03T20:14:03;6.80;99.90
19646;DHT22;9971;52.446;13.452;2023-04-03T20:19:05;6.80;99.90
19646;DHT22;9971;52.446;13.452;2023-04-03T20:24:07;6.70;99.90
19646;DHT22;9971;52.446;13.452;2023-04-03T20:29:10;6.70;99.90
19646;DHT22;9971;52.446;13.452;2023-04-03T20:34:12;6.70;99.90
19646;DHT22;9971;52.446;13.452;2023-04-03T20:39:15;6.60;99.90
19646;DHT22;9971;52.446;13.452;2023-04-03T20:44:17;6.50;99.90
19646;DHT22;9971;52.446;13.452;2023-04-03T20:49:19;6.50;99.90
19646;DHT22;9971;52.446;13.452;2023-04-03T20:54:21;6.40;99.90
19646;DHT22;9971;52.446;13.452;2023-04-03T20:59:24;6.40;99.90
19646;DHT22;9971;52.446;13.452;2023-04-03T21:04:33;6.30;99.90
19646;DHT22;9971;52.446;13.452;2023-04-03T21:20:00;6.30;99.90
19646;DHT22;9971;52.446;13.452;2023-04-03T21:25:03;6.20;99.90
19646;DHT22;9971;52.446;13.452;2023-04-03T21:30:06;6.20;99.90
19646;DHT22;9971;52.446;13.452;2023-04-03T21:35:09;6.10;99.90
19646;DHT22;9971;52.446;13.452;2023-04-03T21:40:12;6.10;99.90
19646;DHT22;9971;52.446;13.452;2023-04-03T21:45:15;6.00;99.90
19646;DHT22;9971;52.446;13.452;2023-04-03T21:50:17;5.90;99.90
19646;DHT22;9971;52.446;13.452;2023-04-03T21:55:20;5.90;99.90
19646;DHT22;9971;52.446;13.452;2023-04-03T22:00:22;5.80;99.90
19646;DHT22;9971;52.446;13.452;2023-04-03T22:05:25;5.70;99.90
19646;DHT22;9971;52.446;13.452;2023-04-03T22:10:27;5.50;99.90
19646;DHT22;9971;52.446;13.452;2023-04-03T22:15:29;5.50;99.90
19646;DHT22;9971;52.446;13.452;2023-04-03T22:20:32;5.40;99.90
19646;DHT22;9971;52.446;13.452;2023-04-03T22:25:34;5.30;99.90
19646;DHT22;9971;52.446;13.452;2023-04-03T22:30:37;5.20;99.90
19646;DHT22;9971;52.446;13.452;2023-04-03T22:35:46;5.20;99.90
19646;DHT22;9971;52.446;13.452;2023-04-03T22:40:54;5.10;99.90
19646;DHT22;9971;52.446;13.452;2023-04-03T22:45:49;5.00;99.90
19646;DHT22;9971;52.446;13.452;2023-04-03T22:50:52;4.90;99.90
19646;DHT22;9971;52.446;13.452;2023-04-03T22:55:58;4.90;99.90
19646;DHT22;9971;52.446;13.452;2023-04-03T23:01:05;4.80;99.90
19646;DHT22;9971;52.446;13.452;2023-04-03T23:06:06;4.70;99.90
19646;DHT22;9971;52.446;13.452;2023-04-03T23:11:08;4.60;99.90
19646;DHT22;9971;52.446;13.452;2023-04-03T23:16:10;4.60;99.90
19646;DHT22;9971;52.446;13.452;2023-04-03T23:21:13;4.50;99.90
19646;DHT22;9971;52.446;13.452;2023-04-03T23:26:15;4.40;99.90
19646;DHT22;9971;52.446;13.452;2023-04-03T23:31:18;4.40;99.90
19646;DHT22;9971;52.446;13.452;2023-04-03T23:36:20;4.30;99.90
19646;DHT22;9971;52.446;13.452;2023-04-03T23:41:23;4.30;99.90
19646;DHT22;9971;52.446;13.452;2023-04-03T23:46:26;4.20;99.90
19646;DHT22;9971;52.446;13.452;2023-04-03T23:51:28;4.20;99.90
19646;DHT22;9971;52.446;13.452;2023-04-03T23:56:31;4.20;99.90
